createdAt,value
2022-12-04T00:01:47.289Z,38.00
2022-12-04T00:04:18.252Z,41.10
2022-12-04T00:06:51.651Z,40.90
2022-12-04T00:09:24.998Z,39.40
2022-12-04T00:11:55.623Z,37.10
2022-12-04T00:14:26.241Z,39.50
2022-12-04T00:16:56.958Z,42.90
2022-12-04T00:19:27.537Z,45.20
2022-12-04T00:21:58.227Z,48.10
2022-12-04T00:24:29.124Z,43.10
2022-12-04T00:26:59.797Z,39.20
2022-12-04T00:29:30.891Z,42.30
2022-12-04T00:32:01.619Z,38.80
2022-12-04T00:34:32.468Z,48.30
2022-12-04T00:37:03.346Z,44.40
2022-12-04T00:39:34.064Z,33.80
2022-12-04T00:42:05.038Z,29.20
2022-12-04T00:44:35.799Z,42.40
2022-12-04T00:47:06.509Z,20.20
2022-12-04T00:49:37.351Z,30.90
2022-12-04T00:52:08.079Z,39.80
2022-12-04T00:54:38.778Z,26.70
2022-12-04T00:57:09.664Z,28.90
2022-12-04T00:59:40.979Z,41.00
2022-12-04T01:02:11.615Z,41.20
2022-12-04T01:04:42.290Z,39.80
2022-12-04T01:07:13.025Z,37.70
2022-12-04T01:09:43.821Z,44.40
2022-12-04T01:12:20.347Z,43.20
2022-12-04T01:14:51.543Z,43.70
2022-12-04T01:17:22.171Z,48.90
2022-12-04T01:19:53.078Z,47.50
2022-12-04T01:22:24.072Z,41.70
2022-12-04T01:24:58.016Z,40.80
2022-12-04T01:27:29.151Z,41.10
2022-12-04T01:29:59.950Z,31.00
2022-12-04T01:32:31.103Z,49.30
2022-12-04T01:35:01.853Z,44.50
2022-12-04T01:37:34.598Z,46.30
2022-12-04T01:40:06.081Z,49.30
2022-12-04T01:42:36.790Z,37.70
2022-12-04T01:45:41.126Z,40.70
2022-12-04T01:48:20.008Z,41.90
2022-12-04T01:50:55.367Z,43.90
2022-12-04T01:53:26.753Z,29.20
2022-12-04T01:55:58.619Z,49.10
2022-12-04T01:58:34.196Z,40.30
2022-12-04T02:01:09.122Z,47.90
2022-12-04T02:03:40.842Z,46.60
2022-12-04T02:06:11.712Z,49.60
2022-12-04T02:08:42.667Z,39.30
2022-12-04T02:11:26.816Z,43.70
2022-12-04T02:14:08.073Z,48.40
2022-12-04T02:16:46.172Z,43.10
2022-12-04T02:19:34.758Z,30.60
2022-12-04T02:22:15.086Z,48.40
2022-12-04T02:24:54.026Z,45.50
2022-12-04T02:27:34.980Z,43.40
2022-12-04T02:30:08.286Z,55.30
2022-12-04T02:32:46.995Z,60.40
2022-12-04T02:35:22.872Z,45.40
2022-12-04T02:38:00.152Z,50.10
2022-12-04T02:40:38.172Z,59.30
2022-12-04T02:43:15.013Z,50.30
2022-12-04T02:45:49.381Z,57.90
2022-12-04T02:48:23.370Z,51.70
2022-12-04T02:50:57.853Z,45.10
2022-12-04T02:53:33.004Z,47.10
2022-12-04T02:56:07.843Z,44.90
2022-12-04T02:58:45.742Z,44.30
2022-12-04T03:01:20.430Z,24.40
2022-12-04T03:03:56.393Z,26.20
2022-12-04T03:06:32.299Z,31.30
2022-12-04T03:09:08.782Z,51.20
2022-12-04T03:11:44.811Z,46.50
2022-12-04T03:14:19.200Z,45.00
2022-12-04T03:16:53.098Z,43.70
2022-12-04T03:19:28.161Z,53.40
2022-12-04T03:22:02.320Z,48.10
2022-12-04T03:24:37.556Z,47.40
2022-12-04T03:27:13.884Z,42.90
2022-12-04T03:29:51.299Z,45.20
2022-12-04T03:32:27.843Z,54.10
2022-12-04T03:35:04.332Z,51.80
2022-12-04T03:37:42.230Z,38.10
2022-12-04T03:40:21.079Z,57.50
2022-12-04T03:42:57.816Z,54.70
2022-12-04T03:45:37.562Z,33.20
2022-12-04T03:48:22.666Z,45.20
2022-12-04T03:50:58.787Z,36.20
2022-12-04T03:53:36.057Z,53.90
2022-12-04T03:56:12.070Z,49.60
2022-12-04T03:58:47.723Z,51.00
2022-12-04T04:01:22.118Z,50.40
2022-12-04T04:03:56.278Z,52.50
2022-12-04T04:06:31.947Z,49.40
2022-12-04T04:09:08.295Z,47.30
2022-12-04T04:11:44.693Z,55.20
2022-12-04T04:14:37.343Z,31.20
2022-12-04T04:17:34.918Z,53.50
2022-12-04T04:20:32.988Z,48.10
2022-12-04T04:23:24.336Z,52.90
2022-12-04T04:25:58.051Z,39.90
2022-12-04T04:28:34.167Z,48.30
2022-12-04T04:31:22.756Z,55.00
2022-12-04T04:34:00.846Z,50.30
2022-12-04T04:36:42.674Z,46.80
2022-12-04T04:39:22.562Z,47.20
2022-12-04T04:41:58.875Z,50.70
2022-12-04T04:44:39.773Z,54.00
2022-12-04T04:47:17.827Z,55.70
2022-12-04T04:49:51.004Z,38.10
2022-12-04T04:54:52.166Z,50.70
2022-12-04T04:57:35.923Z,47.40
2022-12-04T05:00:08.702Z,47.60
2022-12-04T05:02:39.758Z,52.00
2022-12-04T05:05:11.510Z,45.90
2022-12-04T05:07:42.440Z,39.90
2022-12-04T05:10:14.008Z,43.20
2022-12-04T05:12:44.627Z,48.50
2022-12-04T05:15:15.452Z,46.20
2022-12-04T05:17:46.126Z,34.50
2022-12-04T05:20:17.035Z,40.60
2022-12-04T05:22:47.594Z,49.00
2022-12-04T05:25:18.519Z,51.80
2022-12-04T05:27:49.173Z,51.90
2022-12-04T05:30:20.482Z,47.90
2022-12-04T05:32:51.232Z,49.10
2022-12-04T05:35:22.107Z,44.40
2022-12-04T05:37:52.786Z,49.90
2022-12-04T05:40:23.669Z,50.80
2022-12-04T05:42:54.286Z,38.70
2022-12-04T05:45:25.006Z,47.70
2022-12-04T05:47:55.570Z,45.10
2022-12-04T05:50:26.260Z,47.60
2022-12-04T05:52:56.843Z,46.90
2022-12-04T05:55:27.590Z,41.20
2022-12-04T05:57:58.394Z,49.90
2022-12-04T06:00:29.196Z,53.60
2022-12-04T06:02:59.875Z,59.30
2022-12-04T06:05:30.609Z,45.80
2022-12-04T06:08:01.395Z,49.70
2022-12-04T06:10:32.838Z,53.00
2022-12-04T06:13:03.480Z,56.30
2022-12-04T06:15:37.419Z,56.70
2022-12-04T06:18:08.562Z,58.50
2022-12-04T06:20:39.316Z,49.30
2022-12-04T06:23:10.185Z,45.50
2022-12-04T06:25:40.914Z,37.90
2022-12-04T06:28:11.547Z,47.70
2022-12-04T06:30:42.205Z,51.60
2022-12-04T06:33:12.951Z,53.80
2022-12-04T06:35:43.672Z,50.20
2022-12-04T06:38:14.397Z,50.50
2022-12-04T06:40:45.096Z,36.80
2022-12-04T06:43:15.834Z,43.50
2022-12-04T06:45:46.651Z,45.50
2022-12-04T06:48:17.336Z,39.80
2022-12-04T06:50:48.053Z,49.40
2022-12-04T06:53:18.685Z,43.90
2022-12-04T06:55:51.496Z,36.90
2022-12-04T06:58:22.198Z,43.70
2022-12-04T07:00:52.959Z,46.90
2022-12-04T07:03:24.031Z,51.40
2022-12-04T07:05:54.645Z,47.80
2022-12-04T07:08:25.438Z,43.20
2022-12-04T07:10:59.341Z,43.30
2022-12-04T07:13:30.175Z,51.40
2022-12-04T07:16:05.006Z,56.10
2022-12-04T07:18:37.031Z,32.50
2022-12-04T07:21:10.489Z,51.20
2022-12-04T07:23:41.491Z,53.30
2022-12-04T07:26:14.838Z,55.10
2022-12-04T07:28:46.237Z,50.80
2022-12-04T07:31:18.715Z,57.80
2022-12-04T07:33:50.110Z,46.10
2022-12-04T07:36:22.408Z,35.00
2022-12-04T07:38:53.833Z,39.80
2022-12-04T07:41:25.079Z,50.20
2022-12-04T07:43:56.296Z,51.60
2022-12-04T07:46:28.780Z,57.10
2022-12-04T07:49:00.374Z,58.60
2022-12-04T07:51:31.965Z,47.20
2022-12-04T07:54:04.446Z,52.70
2022-12-04T07:56:35.751Z,43.40
2022-12-04T07:59:06.345Z,49.50
2022-12-04T08:01:37.169Z,43.10
2022-12-04T08:04:08.617Z,53.60
2022-12-04T08:06:39.913Z,48.60
2022-12-04T08:09:11.021Z,47.80
2022-12-04T08:11:42.448Z,48.00
2022-12-04T08:14:14.912Z,35.50
2022-12-04T08:16:51.028Z,51.20
2022-12-04T08:19:23.772Z,40.30
2022-12-04T08:21:56.352Z,34.30
2022-12-04T08:24:27.008Z,48.40
2022-12-04T08:26:57.697Z,42.30
2022-12-04T08:29:28.420Z,40.90
2022-12-04T08:31:59.626Z,52.90
2022-12-04T08:34:30.462Z,46.40
2022-12-04T08:37:01.187Z,48.80
2022-12-04T08:39:32.263Z,49.00
2022-12-04T08:42:02.866Z,52.10
2022-12-04T08:44:33.511Z,51.60
2022-12-04T08:47:04.131Z,56.80
2022-12-04T08:49:34.985Z,39.10
2022-12-04T08:52:05.981Z,48.60
2022-12-04T08:54:36.605Z,44.90
2022-12-04T08:57:07.280Z,36.00
2022-12-04T08:59:38.217Z,50.40
2022-12-04T09:02:09.826Z,42.20
2022-12-04T09:04:40.524Z,44.10
2022-12-04T09:07:11.266Z,54.90
2022-12-04T09:09:47.906Z,50.80
2022-12-04T09:12:19.202Z,26.80
2022-12-04T09:14:49.837Z,46.00
2022-12-04T09:17:20.699Z,52.70
2022-12-04T09:19:51.310Z,43.20
2022-12-04T09:22:21.967Z,39.30
2022-12-04T09:24:52.766Z,23.50
2022-12-04T09:27:23.557Z,47.10
2022-12-04T09:29:54.820Z,35.20
2022-12-04T09:32:25.638Z,30.50
2022-12-04T09:34:56.319Z,52.50
2022-12-04T09:37:27.101Z,50.10
2022-12-04T09:39:58.026Z,27.80
2022-12-04T09:42:38.644Z,41.70
2022-12-04T09:45:15.792Z,49.90
2022-12-04T09:47:49.739Z,50.80
2022-12-04T09:50:22.777Z,31.60
2022-12-04T09:52:59.654Z,52.40
2022-12-04T09:55:34.027Z,52.30
2022-12-04T09:58:11.523Z,41.10
2022-12-04T10:00:47.211Z,46.20
2022-12-04T10:03:21.155Z,48.30
2022-12-04T10:06:01.598Z,50.30
2022-12-04T10:08:36.422Z,38.60
2022-12-04T10:11:15.786Z,36.80
2022-12-04T10:14:00.724Z,42.50
2022-12-04T10:16:41.879Z,47.90
2022-12-04T10:19:25.569Z,43.10
2022-12-04T10:22:04.873Z,46.30
2022-12-04T10:24:46.866Z,44.60
2022-12-04T10:27:24.815Z,43.00
2022-12-04T10:29:59.650Z,45.40
2022-12-04T10:32:33.859Z,41.80
2022-12-04T10:35:17.115Z,51.60
2022-12-04T10:37:50.475Z,41.90
2022-12-04T10:40:26.315Z,45.20
2022-12-04T10:43:03.761Z,46.30
2022-12-04T10:45:34.665Z,49.20
2022-12-04T10:48:08.028Z,41.00
2022-12-04T10:50:38.761Z,39.90
2022-12-04T10:53:13.963Z,32.10
2022-12-04T10:55:45.018Z,45.60
2022-12-04T10:58:20.546Z,43.30
2022-12-04T11:01:05.088Z,45.50
2022-12-04T11:03:36.626Z,48.90
2022-12-04T11:06:10.515Z,50.10
2022-12-04T11:08:43.278Z,44.10
2022-12-04T11:11:16.534Z,39.40
2022-12-04T11:13:47.244Z,45.80
2022-12-04T11:16:36.076Z,40.80
2022-12-04T11:19:19.854Z,50.50
2022-12-04T11:21:51.386Z,47.20
2022-12-04T11:24:26.272Z,31.00
2022-12-04T11:26:57.964Z,45.50
2022-12-04T11:29:36.536Z,44.00
2022-12-04T11:32:14.755Z,43.70
2022-12-04T11:34:48.901Z,42.00
2022-12-04T11:37:23.916Z,45.80
2022-12-04T11:39:56.693Z,42.10
2022-12-04T11:42:30.085Z,46.10
2022-12-04T11:45:02.277Z,46.90
2022-12-04T11:47:34.643Z,42.20
2022-12-04T11:50:14.749Z,50.00
2022-12-04T11:53:06.654Z,47.20
2022-12-04T11:55:48.529Z,47.30
2022-12-04T11:58:55.443Z,54.10
2022-12-04T12:01:37.627Z,41.10
2022-12-04T12:04:40.739Z,47.70
2022-12-04T12:07:25.416Z,48.50
2022-12-04T12:10:04.701Z,53.10
2022-12-04T12:12:47.939Z,46.30
2022-12-04T12:15:27.879Z,45.10
2022-12-04T12:18:19.118Z,52.50
2022-12-04T12:21:03.969Z,53.10
2022-12-04T12:23:50.542Z,45.80
2022-12-04T12:26:21.755Z,51.60
2022-12-04T12:29:11.579Z,44.40
2022-12-04T12:32:00.620Z,53.60
2022-12-04T12:34:38.587Z,47.30
2022-12-04T12:37:17.469Z,45.60
2022-12-04T12:39:52.398Z,53.70
2022-12-04T12:42:27.918Z,54.80
2022-12-04T12:45:07.496Z,47.70
2022-12-04T12:47:44.802Z,52.30
2022-12-04T12:50:18.650Z,40.70
2022-12-04T12:52:57.417Z,51.10
2022-12-04T12:55:31.855Z,34.70
2022-12-04T12:58:08.527Z,50.00
2022-12-04T13:00:44.825Z,45.50
2022-12-04T13:03:40.239Z,50.50
2022-12-04T13:06:15.912Z,45.30
2022-12-04T13:08:57.279Z,42.00
2022-12-04T13:11:29.721Z,39.70
2022-12-04T13:14:02.368Z,26.20
2022-12-04T13:16:38.416Z,46.60
2022-12-04T13:19:17.991Z,44.40
2022-12-04T13:21:57.387Z,47.90
2022-12-04T13:24:59.520Z,54.30
2022-12-04T13:27:42.282Z,45.70
2022-12-04T13:30:20.071Z,37.70
2022-12-04T13:33:14.628Z,41.50
2022-12-04T13:36:07.498Z,47.40
2022-12-04T13:38:47.455Z,44.40
2022-12-04T13:41:21.677Z,44.70
2022-12-04T13:43:53.732Z,48.50
2022-12-04T13:46:34.085Z,49.80
2022-12-04T13:49:26.295Z,48.80
2022-12-04T13:51:58.350Z,51.90
2022-12-04T13:54:34.934Z,46.20
2022-12-04T13:57:22.868Z,42.60
2022-12-04T14:00:08.153Z,58.40
2022-12-04T14:02:53.023Z,54.20
2022-12-04T14:05:32.331Z,50.80
2022-12-04T14:08:08.078Z,41.50
2022-12-04T14:10:40.470Z,54.10
2022-12-04T14:13:21.254Z,47.80
2022-12-04T14:16:07.872Z,54.60
2022-12-04T14:18:39.401Z,54.60
2022-12-04T14:21:10.325Z,48.10
2022-12-04T14:23:42.531Z,53.70
2022-12-04T14:26:37.295Z,52.30
2022-12-04T14:29:33.959Z,49.50
2022-12-04T14:32:15.446Z,54.40
2022-12-04T14:34:48.046Z,57.20
2022-12-04T14:37:27.839Z,46.90
2022-12-04T14:40:00.092Z,62.10
2022-12-04T14:42:36.811Z,27.70
2022-12-04T14:45:18.755Z,49.30
2022-12-04T14:48:00.073Z,56.80
2022-12-04T14:50:40.721Z,56.90
2022-12-04T14:53:22.257Z,49.70
2022-12-04T14:56:07.698Z,55.60
2022-12-04T14:58:40.586Z,57.10
2022-12-04T15:01:28.630Z,58.70
2022-12-04T15:04:08.408Z,60.50
2022-12-04T15:06:44.634Z,52.90
2022-12-04T15:09:38.153Z,40.00
2022-12-04T15:12:34.611Z,57.90
2022-12-04T15:15:15.096Z,41.70
2022-12-04T15:17:56.210Z,54.20
2022-12-04T15:20:27.734Z,63.60
2022-12-04T15:22:59.797Z,38.40
2022-12-04T15:25:36.064Z,36.70
2022-12-04T15:28:13.367Z,61.00
2022-12-04T15:30:45.242Z,53.20
2022-12-04T15:33:21.690Z,44.50
2022-12-04T15:35:57.248Z,46.00
2022-12-04T15:38:28.467Z,57.60
2022-12-04T15:41:01.795Z,53.10
2022-12-04T15:43:39.743Z,59.20
2022-12-04T15:46:22.654Z,40.90
2022-12-04T15:48:53.504Z,57.10
2022-12-04T15:51:24.182Z,50.20
2022-12-04T15:53:54.948Z,63.30
2022-12-04T15:56:25.827Z,67.20
2022-12-04T15:59:00.587Z,64.30
2022-12-04T16:01:41.511Z,45.40
2022-12-04T16:04:23.125Z,51.60
2022-12-04T16:06:54.853Z,54.60
2022-12-04T16:09:27.513Z,55.60
2022-12-04T16:12:03.468Z,45.10
2022-12-04T16:14:34.392Z,48.20
2022-12-04T16:17:06.610Z,50.10
2022-12-04T16:19:39.784Z,47.10
2022-12-04T16:22:20.225Z,64.50
2022-12-04T16:24:51.781Z,63.50
2022-12-04T16:27:24.105Z,40.60
2022-12-04T16:29:55.594Z,49.80
2022-12-04T16:32:29.762Z,28.60
2022-12-04T16:35:01.588Z,47.10
2022-12-04T16:37:32.557Z,45.50
2022-12-04T16:40:06.579Z,49.20
2022-12-04T16:42:37.494Z,60.10
2022-12-04T16:45:22.598Z,51.80
2022-12-04T16:50:23.241Z,44.00
2022-12-04T16:52:54.345Z,50.40
2022-12-04T16:55:37.428Z,49.20
2022-12-04T16:58:09.166Z,45.90
2022-12-04T17:00:39.960Z,50.20
2022-12-04T17:03:15.502Z,49.90
2022-12-04T17:05:46.359Z,49.00
2022-12-04T17:08:17.447Z,48.30
2022-12-04T17:10:48.721Z,49.30
2022-12-04T17:13:21.963Z,56.90
2022-12-04T17:15:52.697Z,55.00
2022-12-04T17:18:23.455Z,42.10
2022-12-04T17:20:54.296Z,57.80
2022-12-04T17:23:25.346Z,58.50
2022-12-04T17:25:55.921Z,47.80
2022-12-04T17:28:26.524Z,52.80
2022-12-04T17:30:57.400Z,51.80
2022-12-04T17:33:28.574Z,57.50
2022-12-04T17:36:00.346Z,50.50
2022-12-04T17:38:31.053Z,54.40
2022-12-04T17:41:02.948Z,53.80
2022-12-04T17:43:34.548Z,47.60
2022-12-04T17:46:09.188Z,47.80
2022-12-04T17:48:40.323Z,52.40
2022-12-04T17:51:13.337Z,52.00
2022-12-04T17:56:17.375Z,35.70
2022-12-04T17:58:49.129Z,50.80
2022-12-04T18:01:22.407Z,51.40
2022-12-04T18:03:55.190Z,43.60
2022-12-04T18:06:27.400Z,42.10
2022-12-04T18:08:59.000Z,46.80
2022-12-04T18:11:31.568Z,36.90
2022-12-04T18:14:10.172Z,37.00
2022-12-04T18:16:45.460Z,49.30
2022-12-04T18:19:16.985Z,42.20
2022-12-04T18:21:47.673Z,47.10
2022-12-04T18:24:19.473Z,38.40
2022-12-04T18:26:51.336Z,41.40
2022-12-04T18:29:24.619Z,47.40
2022-12-04T18:31:56.094Z,40.00
2022-12-04T18:34:27.206Z,41.10
2022-12-04T18:36:58.014Z,49.90
2022-12-04T18:39:29.023Z,46.50
2022-12-04T18:41:59.667Z,33.90
2022-12-04T18:44:30.898Z,48.50
2022-12-04T18:47:01.540Z,51.60
2022-12-04T18:49:32.527Z,51.80
2022-12-04T18:52:03.697Z,50.80
2022-12-04T18:54:34.506Z,45.30
2022-12-04T18:57:05.118Z,53.30
2022-12-04T18:59:37.445Z,47.30
2022-12-04T19:02:08.416Z,46.50
2022-12-04T19:04:40.140Z,42.30
2022-12-04T19:07:10.764Z,28.80
2022-12-04T19:10:09.934Z,37.10
2022-12-04T19:12:32.128Z,31.70
2022-12-04T19:15:02.950Z,30.10
2022-12-04T19:17:33.751Z,40.40
2022-12-04T19:20:04.703Z,36.30
2022-12-04T19:22:35.585Z,39.80
2022-12-04T19:25:07.459Z,33.70
2022-12-04T19:27:38.102Z,38.10
2022-12-04T19:30:10.991Z,29.10
2022-12-04T19:32:41.745Z,43.50
2022-12-04T19:35:12.891Z,36.50
2022-12-04T19:37:48.156Z,43.80
2022-12-04T19:40:22.569Z,40.70
2022-12-04T19:42:55.899Z,25.40
2022-12-04T19:45:30.438Z,41.30
2022-12-04T19:48:01.128Z,46.60
2022-12-04T19:50:32.468Z,37.10
2022-12-04T19:53:03.225Z,40.80
2022-12-04T19:55:36.366Z,32.60
2022-12-04T19:58:07.796Z,39.00
2022-12-04T20:00:38.477Z,38.70
2022-12-04T20:03:09.103Z,41.00
2022-12-04T20:05:40.411Z,40.10
2022-12-04T20:10:40.650Z,39.00
2022-12-04T20:13:12.552Z,24.00
2022-12-04T20:15:43.374Z,24.70
2022-12-04T20:18:14.270Z,29.10
2022-12-04T20:20:47.824Z,31.60
2022-12-04T20:23:18.471Z,18.90
2022-12-04T20:25:49.195Z,28.90
2022-12-04T20:28:21.363Z,22.30
2022-12-04T20:30:52.391Z,32.30
2022-12-04T20:33:23.152Z,33.80
2022-12-04T20:35:55.459Z,35.90
2022-12-04T20:38:26.389Z,32.50
2022-12-04T20:40:57.000Z,31.60
2022-12-04T20:43:28.509Z,32.30
2022-12-04T20:45:59.237Z,36.40
2022-12-04T20:48:30.596Z,33.20
2022-12-04T20:51:03.245Z,37.60
2022-12-04T20:53:33.926Z,29.30
2022-12-04T20:56:04.686Z,20.10
2022-12-04T20:58:35.421Z,24.70
2022-12-04T21:01:10.445Z,29.10
2022-12-04T21:03:42.038Z,27.50
2022-12-04T21:06:17.059Z,25.50
2022-12-04T21:08:54.095Z,25.70
2022-12-04T21:11:25.567Z,27.40
2022-12-04T21:14:15.946Z,27.40
2022-12-04T21:16:48.370Z,26.30
2022-12-04T21:19:20.929Z,23.40
2022-12-04T21:21:52.827Z,21.70
2022-12-04T21:24:26.586Z,24.40
2022-12-04T21:26:57.488Z,23.20
2022-12-04T21:29:28.283Z,29.00
2022-12-04T21:31:58.856Z,24.50
2022-12-04T21:34:29.712Z,29.00
2022-12-04T21:37:00.409Z,25.50
2022-12-04T21:39:31.153Z,25.20
2022-12-04T21:42:19.758Z,23.30
2022-12-04T21:44:50.579Z,20.10
2022-12-04T21:47:21.295Z,23.80
2022-12-04T21:49:52.072Z,19.60
2022-12-04T21:52:23.303Z,26.50
2022-12-04T21:54:55.267Z,21.00
2022-12-04T21:57:26.395Z,21.30
2022-12-04T21:59:57.389Z,23.30
2022-12-04T22:02:28.483Z,22.30
2022-12-04T22:04:59.313Z,17.80
2022-12-04T22:07:29.917Z,18.10
2022-12-04T22:10:04.076Z,18.10
2022-12-04T22:12:52.131Z,15.60
2022-12-04T22:15:22.859Z,13.00
2022-12-04T22:17:53.904Z,9.60
2022-12-04T22:20:24.507Z,10.40
2022-12-04T22:22:55.147Z,10.00
2022-12-04T22:25:25.859Z,11.90
2022-12-04T22:27:57.013Z,8.40
2022-12-04T22:30:28.991Z,9.00
2022-12-04T22:32:59.613Z,11.10
2022-12-04T22:35:30.330Z,9.60
2022-12-04T22:38:00.944Z,8.90
2022-12-04T22:40:31.543Z,10.90
2022-12-04T22:43:02.110Z,9.70
2022-12-04T22:45:32.950Z,10.20
2022-12-04T22:48:03.773Z,10.00
2022-12-04T22:50:34.414Z,9.80
2022-12-04T22:53:05.052Z,9.70
2022-12-04T22:55:37.378Z,12.10
2022-12-04T22:58:08.032Z,12.50
2022-12-04T23:00:38.719Z,10.00
2022-12-04T23:03:09.434Z,12.00
2022-12-04T23:05:40.612Z,10.80
2022-12-04T23:08:11.358Z,11.30
2022-12-04T23:10:42.213Z,11.20
2022-12-04T23:13:13.013Z,12.70
2022-12-04T23:15:43.740Z,13.20
2022-12-04T23:18:14.305Z,10.70
2022-12-04T23:20:44.926Z,12.10
2022-12-04T23:23:15.655Z,12.90
2022-12-04T23:25:46.327Z,13.10
2022-12-04T23:28:17.015Z,12.90
2022-12-04T23:30:50.539Z,11.90
2022-12-04T23:33:21.199Z,14.60
2022-12-04T23:35:55.307Z,14.30
2022-12-04T23:38:27.801Z,13.40
2022-12-04T23:41:05.105Z,13.10
2022-12-04T23:43:36.240Z,13.60
2022-12-04T23:46:11.380Z,14.10
2022-12-04T23:48:43.558Z,15.10
2022-12-04T23:51:16.119Z,13.80
2022-12-04T23:53:47.616Z,14.70
2022-12-04T23:56:20.411Z,17.10
2022-12-04T23:58:53.037Z,15.80
